• Join FlightAware (Why Join?)
  • Login
  • US Flag 
08:58AM EST


 

Airport Tracker/Info


-or-


 

Live Flight TrackerFlight Track Log ✈ EJA831 ✈ 16-Jun-2013 ✈ KACB - KFOK

Flight Track Log - Related Links

Times and Time Zones

All times are in EDT time to prevent confusion due to time zone crossing. See the EJA831 flight status page for this flight to view local times or setup timezone preferences in your user account.

Time Position Orientation Groundspeed Altitude Reporting Facility
EDT Latitude Longitude Course Direction KTS MPH feet Rate Location/Type
08:20AM 44.9442 -85.1897 110° East 204 235 3,500  Level Minneapolis Center
08:21AM 44.8956 -85.1169 133° Southeast 249 287 7,000 3,480 Climbing Minneapolis Center
08:22AM 44.8244 -85.0081 133° Southeast 300 345 10,600 3,120 Climbing Minneapolis Center
08:23AM 44.7569 -84.9064 133° Southeast 341 392 13,400 2,700 Climbing Minneapolis Center
08:24AM 44.6867 -84.8008 133° Southeast 364 419 16,200 2,820 Climbing Minneapolis Center
08:25AM 44.6987 -84.0903 110° East  Level Estimated
08:25AM 44.6153 -84.6933 133° Southeast 374 430 19,200  Level Minneapolis Center
08:26AM 44.5439 -84.5861 133° Southeast 375 432 21,900 2,520 Climbing Minneapolis Center
08:27AM 44.4708 -84.4769 133° Southeast 381 438 24,400 2,100 Climbing Minneapolis Center
08:28AM 44.3975 -84.3664 133° Southeast 386 444 26,200 1,620 Climbing Minneapolis Center
08:29AM 44.3183 -84.2486 133° Southeast 410 472 27,800 1,500 Climbing Minneapolis Center
08:30AM 44.2361 -84.1272 133° Southeast 426 490 29,300 1,440 Climbing Minneapolis Center
08:31AM 44.1539 -84.0069 134° Southeast 429 494 30,800 1,320 Climbing Minneapolis Center
08:32AM 44.0689 -83.8817 133° Southeast 439 505 32,000 1,140 Climbing Minneapolis Center
08:33AM 43.9831 -83.7553 133° Southeast 448 516 33,200 1,320 Climbing Minneapolis Center
08:34AM 43.8906 -83.6219 134° Southeast 449 517 34,800 1,560 Climbing Minneapolis Center
08:35AM 43.8075 -83.5006 133° Southeast 441 507 36,400 1,440 Climbing Minneapolis Center
08:36AM 43.7250 -83.3811 134° Southeast 433 498 37,800 1,200 Climbing Minneapolis Center
08:37AM 43.6422 -83.2633 134° Southeast 429 494 38,900 1,080 Climbing Minneapolis Center
08:38AM 43.5511 -83.1408 136° Southeast 430 495 39,900 1,020 Climbing Cleveland Center
08:39AM 43.4661 -83.0172 133° Southeast 430 495 40,900 540 Climbing Cleveland Center
08:40AM 43.3811 -82.8939 133° Southeast 435 501 41,000  Climbing Cleveland Center
08:41AM 43.2878 -82.7622 134° Southeast 457 526 41,000  Level Cleveland Center
08:42AM 43.2200 -82.5972 119° Southeast 476 548 41,000  Level Cleveland Center
08:43AM 43.1667 -82.4161 112° Southeast 487 560 41,000  Level Cleveland Center
08:44AM 43.1175 -82.2328 110° East 499 574 41,000  Level Cleveland Center
08:45AM 43.0947 -82.0503 100° East 491 565 41,000  Level Cleveland Center
08:46AM 43.0742 -81.8592 98° East 496 571 41,000  Level Cleveland Center
08:47AM 43.0500 -81.6833 101° East 500 575 41,000  Level Toronto Center
08:48AM 43.0167 -81.5000 104° East 490 564 41,000  Level Toronto Center
08:49AM 43.0000 -81.3167 97° East 480 552 41,000  Level Toronto Center
08:50AM 42.9667 -81.1333 104° East 480 552 41,000  Level Toronto Center
08:51AM 42.9333 -80.9500 104° East 480 552 41,000  Level Toronto Center
08:52AM 42.9333 -80.7667 90° East 480 552 41,000  Level Toronto Center
08:53AM 42.9000 -80.6167 107° East 480 552 41,000  Level Toronto Center
08:54AM 42.8833 -80.4333 97° East 480 552 41,000  Level Toronto Center
08:55AM 42.8706 -80.3000 97° East 479 551 41,000  Level Cleveland Center
08:56AM 42.8469 -80.1217 100° East 479 551 41,000  Level Cleveland Center
08:57AM 42.8378 -79.9461 94° East 474 545 41,000  Level Cleveland Center
08:58AM 42.8386 -79.7678 90° East 468 539 41,000  Level Cleveland Center
08:59AM 42.8394 -79.5922 90° East 462 532 41,000  Level Cleveland Center
09:00AM 42.8400 -79.4139 90° East 462 532 41,000  Level Cleveland Center
09:01AM 42.8422 -79.2353 89° East 462 532 41,000  Level Cleveland Center
09:02AM 42.8442 -79.0597 89° East 462 532 41,000  Level Cleveland Center
09:03AM 42.8458 -78.8814 89° East 462 532 41,000  Level Cleveland Center
09:04AM 42.8453 -78.7086 90° East 462 532 41,000  Level Cleveland Center
09:05AM 42.8444 -78.5358 90° East 455 524 41,000  Level Cleveland Center
09:06AM 42.8453 -78.3603 90° East 455 524 41,000  Level Cleveland Center
09:07AM 42.8439 -78.1847 91° East 460 529 41,000  Level Cleveland Center
09:08AM 42.8442 -78.0119 90° East 460 529 41,000  Level Cleveland Center
09:09AM 42.8442 -77.8222 90° East 460 529 41,000  Level Cleveland Center
09:10AM 42.8439 -77.6494 90° East 460 529 41,000  Level Cleveland Center
09:11AM 42.8394 -77.3736 91° East 458 527 41,000  Level Boston Center
09:12AM 42.8386 -77.2008 90° East 458 527 41,000  Level Boston Center
09:13AM 42.8353 -77.0278 91° East 458 527 41,000  Level Boston Center
09:14AM 42.8317 -76.8575 92° East 458 527 41,000  Level Boston Center
09:15AM 42.8192 -76.6894 96° East 453 521 41,000  Level Boston Center
09:16AM 42.7983 -76.5181 99° East 453 521 41,000  Level Boston Center
09:17AM 42.7731 -76.3494 101° East 453 521 41,000 -180 Level Boston Center
09:18AM 42.7494 -76.1839 101° East 453 521 40,700 -660 Descending Boston Center
09:19AM 42.7256 -76.0128 101° East 453 521 39,700 -900 Descending Boston Center
09:20AM 42.6997 -75.8392 101° East 458 527 39,000 -360 Descending Boston Center
09:21AM 42.6717 -75.6594 102° East 469 540 39,000  Level Boston Center
09:22AM 42.6453 -75.4775 101° East 475 547 39,000  Level Boston Center
09:23AM 42.6167 -75.2983 102° East 475 547 39,000  Level Boston Center
09:24AM 42.5917 -75.1222 101° East 475 547 39,000 -660 Level Boston Center
09:25AM 42.5644 -74.9461 102° East 475 547 37,700 -1,980 Descending Boston Center
09:26AM 42.5350 -74.7647 102° East 481 554 35,100 -2,700 Descending Boston Center
09:27AM 42.5092 -74.5892 101° East 500 575 32,400 -2,640 Descending Boston Center
09:28AM 42.4833 -74.4164 101° East 495 570 29,900 -1,740 Descending Boston Center
09:29AM 42.4547 -74.2439 103° East 479 551 29,000 -1,200 Descending Boston Center
09:30AM 42.4261 -74.0742 103° East 465 535 27,600 -1,560 Descending Boston Center
09:31AM 42.3972 -73.9019 103° East 465 535 25,900 -1,620 Descending Boston Center
09:32AM 42.3722 -73.7383 102° East 453 521 24,400 -1,620 Descending Boston Center
09:33AM 42.3447 -73.5750 103° East 453 521 22,700 -1,680 Descending Boston Center
09:34AM 42.3211 -73.4089 101° East 453 521 21,100 -1,560 Descending Boston Center
09:35AM 42.2911 -73.2653 106° East 426 490 19,600 -1,080 Descending Boston Center
09:36AM 42.2567 -73.1244 108° East 400 460 19,000 -300 Descending Boston Center
09:37AM 42.1719 -73.0031 133° Southeast 394 453 19,000  Level Boston Center
09:38AM 42.1036 -72.9103 135° Southeast 394 453 19,000  Level Boston Center
09:39AM 42.0247 -72.8061 136° Southeast 394 453 19,000 -480 Level Boston Center
09:40AM 41.9228 -72.6883 139° Southeast 394 453 18,000 -1,380 Descending Boston Center
09:41AM 41.8481 -72.6072 141° Southeast 393 452 16,400 -1,920 Descending Boston Center
09:42AM 41.7458 -72.5069 144° Southeast 370 426 14,200 -1,800 Descending Boston Center
09:43AM 41.6667 -72.4289 144° Southeast 348 400 12,400 -1,620 Descending Boston Center
09:44AM 41.5917 -72.3514 142° Southeast 343 395 11,000 -1,440 Descending Boston Center
09:44AM 41.5917 -72.3514 142° Southeast 354 407 11,000 -120 Level Boston Center
09:45AM 41.5167 -72.2736 142° Southeast 344 396 10,900 -660 Descending Boston Center
09:46AM 41.4497 -72.2075 143° Southeast 325 374 9,700 -1,500 Descending Boston Center
09:48AM 41.3167 -72.2167 183° South 256 295 6,600 -1,320 Descending New York TRACON
09:49AM 41.2667 -72.2667 217° Southwest 241 277 5,900 -1,020 Descending New York TRACON
09:50AM 41.2167 -72.3167 217° Southwest 244 281 4,600 -1,020 Descending New York TRACON
09:51AM 41.1667 -72.3500 207° Southwest 239 275 4,000 -300 Descending New York TRACON
09:52AM 41.1000 -72.4167 217° Southwest 255 293 4,000 -60 Level New York TRACON
09:53AM 41.0500 -72.4500 207° Southwest 255 293 3,900 -720 Descending New York TRACON
09:54AM 40.9833 -72.4667 191° South 231 266 2,700 -780 Descending New York TRACON
09:55AM 40.9333 -72.5167 217° Southwest 176 203 2,400 -780 Descending New York TRACON
09:56AM 40.9000 -72.5500 217° Southwest 199 229 1,300 -1,080 Descending New York TRACON
09:57AM 40.8667 -72.6000 229° Southwest 153 176 400 -900 Descending New York TRACON
09:59AM 40.8333 -72.6167 123° Southeast  Level FlightAware Approximate